sensor_id;sensor_type;location;lat;lon;timestamp;temperature;humidity
4820;DHT22;2424;49.696;6.630;2023-01-28T00:00:34;2.20;99.90
4820;DHT22;2424;49.696;6.630;2023-01-28T00:06:01;2.20;99.90
4820;DHT22;2424;49.696;6.630;2023-01-28T00:11:24;2.20;99.90
4820;DHT22;2424;49.696;6.630;2023-01-28T00:16:47;2.20;99.90
4820;DHT22;2424;49.696;6.630;2023-01-28T00:22:09;2.10;99.90
4820;DHT22;2424;49.696;6.630;2023-01-28T00:27:31;2.20;99.90
4820;DHT22;2424;49.696;6.630;2023-01-28T00:32:55;2.10;99.90
4820;DHT22;2424;49.696;6.630;2023-01-28T00:38:17;2.10;99.90
4820;DHT22;2424;49.696;6.630;2023-01-28T00:43:40;2.10;99.90
4820;DHT22;2424;49.696;6.630;2023-01-28T00:49:03;2.10;99.90
4820;DHT22;2424;49.696;6.630;2023-01-28T00:54:25;2.10;99.90
4820;DHT22;2424;49.696;6.630;2023-01-28T00:59:47;2.10;99.90
4820;DHT22;2424;49.696;6.630;2023-01-28T01:05:11;2.10;99.90
4820;DHT22;2424;49.696;6.630;2023-01-28T01:10:33;2.10;99.90
4820;DHT22;2424;49.696;6.630;2023-01-28T01:16:03;2.10;99.90
4820;DHT22;2424;49.696;6.630;2023-01-28T01:21:28;2.10;99.90
4820;DHT22;2424;49.696;6.630;2023-01-28T01:26:50;2.10;99.90
4820;DHT22;2424;49.696;6.630;2023-01-28T01:32:12;2.10;99.90
4820;DHT22;2424;49.696;6.630;2023-01-28T01:37:36;2.10;99.90
4820;DHT22;2424;49.696;6.630;2023-01-28T01:42:58;2.10;99.90
4820;DHT22;2424;49.696;6.630;2023-01-28T01:48:22;2.10;99.90
4820;DHT22;2424;49.696;6.630;2023-01-28T01:53:50;2.10;99.90
4820;DHT22;2424;49.696;6.630;2023-01-28T01:59:17;2.10;99.90
4820;DHT22;2424;49.696;6.630;2023-01-28T02:04:42;2.10;99.90
4820;DHT22;2424;49.696;6.630;2023-01-28T02:10:07;2.10;99.90
4820;DHT22;2424;49.696;6.630;2023-01-28T02:15:30;2.10;99.90
4820;DHT22;2424;49.696;6.630;2023-01-28T02:21:14;2.00;99.90
4820;DHT22;2424;49.696;6.630;2023-01-28T02:26:52;2.10;99.90
4820;DHT22;2424;49.696;6.630;2023-01-28T02:32:21;2.00;99.90
4820;DHT22;2424;49.696;6.630;2023-01-28T02:37:48;2.00;99.90
4820;DHT22;2424;49.696;6.630;2023-01-28T02:43:14;2.00;99.90
4820;DHT22;2424;49.696;6.630;2023-01-28T02:48:37;2.10;99.90
4820;DHT22;2424;49.696;6.630;2023-01-28T02:54:05;2.00;99.90
4820;DHT22;2424;49.696;6.630;2023-01-28T02:59:34;2.00;99.90
4820;DHT22;2424;49.696;6.630;2023-01-28T03:05:01;2.00;99.90
4820;DHT22;2424;49.696;6.630;2023-01-28T03:10:25;2.00;99.90
4820;DHT22;2424;49.696;6.630;2023-01-28T03:15:48;2.00;99.90
4820;DHT22;2424;49.696;6.630;2023-01-28T03:21:32;2.00;99.90
4820;DHT22;2424;49.696;6.630;2023-01-28T03:27:16;2.00;99.90
4820;DHT22;2424;49.696;6.630;2023-01-28T03:32:58;1.90;99.90
4820;DHT22;2424;49.696;6.630;2023-01-28T03:38:40;1.90;99.90
4820;DHT22;2424;49.696;6.630;2023-01-28T03:44:03;1.90;99.90
4820;DHT22;2424;49.696;6.630;2023-01-28T03:49:44;1.90;99.90
4820;DHT22;2424;49.696;6.630;2023-01-28T03:55:10;1.90;99.90
4820;DHT22;2424;49.696;6.630;2023-01-28T04:00:34;1.90;99.90
4820;DHT22;2424;49.696;6.630;2023-01-28T04:05:58;1.90;99.90
4820;DHT22;2424;49.696;6.630;2023-01-28T04:11:22;1.90;99.90
4820;DHT22;2424;49.696;6.630;2023-01-28T04:16:45;1.90;99.90
4820;DHT22;2424;49.696;6.630;2023-01-28T04:22:10;1.90;99.90
4820;DHT22;2424;49.696;6.630;2023-01-28T04:27:33;1.90;99.90
4820;DHT22;2424;49.696;6.630;2023-01-28T04:32:55;1.90;99.90
4820;DHT22;2424;49.696;6.630;2023-01-28T04:38:17;1.90;99.90
4820;DHT22;2424;49.696;6.630;2023-01-28T04:43:40;1.90;99.90
4820;DHT22;2424;49.696;6.630;2023-01-28T04:49:02;1.90;99.90
4820;DHT22;2424;49.696;6.630;2023-01-28T04:54:24;1.90;99.90
4820;DHT22;2424;49.696;6.630;2023-01-28T04:59:48;1.90;99.90
4820;DHT22;2424;49.696;6.630;2023-01-28T05:05:10;1.90;99.90
4820;DHT22;2424;49.696;6.630;2023-01-28T05:10:32;1.90;99.90
4820;DHT22;2424;49.696;6.630;2023-01-28T05:15:55;1.90;99.90
4820;DHT22;2424;49.696;6.630;2023-01-28T05:21:17;1.90;99.90
4820;DHT22;2424;49.696;6.630;2023-01-28T05:26:39;1.90;99.90
4820;DHT22;2424;49.696;6.630;2023-01-28T05:32:03;1.90;99.90
4820;DHT22;2424;49.696;6.630;2023-01-28T05:37:25;1.90;99.90
4820;DHT22;2424;49.696;6.630;2023-01-28T05:42:47;1.90;99.90
4820;DHT22;2424;49.696;6.630;2023-01-28T05:48:10;1.90;99.90
4820;DHT22;2424;49.696;6.630;2023-01-28T05:53:32;1.90;99.90
4820;DHT22;2424;49.696;6.630;2023-01-28T05:58:54;1.80;99.90
4820;DHT22;2424;49.696;6.630;2023-01-28T06:04:17;1.90;99.90
4820;DHT22;2424;49.696;6.630;2023-01-28T06:09:39;1.90;99.90
4820;DHT22;2424;49.696;6.630;2023-01-28T06:15:01;1.90;99.90
4820;DHT22;2424;49.696;6.630;2023-01-28T06:20:26;1.90;99.90
4820;DHT22;2424;49.696;6.630;2023-01-28T06:25:52;1.80;99.90
4820;DHT22;2424;49.696;6.630;2023-01-28T06:31:15;1.80;99.90
4820;DHT22;2424;49.696;6.630;2023-01-28T06:36:38;1.80;99.90
4820;DHT22;2424;49.696;6.630;2023-01-28T06:42:00;1.80;99.90
4820;DHT22;2424;49.696;6.630;2023-01-28T06:47:22;1.80;99.90
4820;DHT22;2424;49.696;6.630;2023-01-28T06:52:45;1.80;99.90
4820;DHT22;2424;49.696;6.630;2023-01-28T06:58:07;1.80;99.90
4820;DHT22;2424;49.696;6.630;2023-01-28T07:03:29;1.80;99.90
4820;DHT22;2424;49.696;6.630;2023-01-28T07:08:52;1.80;99.90
4820;DHT22;2424;49.696;6.630;2023-01-28T07:14:14;1.80;99.90
4820;DHT22;2424;49.696;6.630;2023-01-28T07:19:36;1.70;99.90
4820;DHT22;2424;49.696;6.630;2023-01-28T07:24:59;1.70;99.90
4820;DHT22;2424;49.696;6.630;2023-01-28T07:30:21;1.70;99.90
4820;DHT22;2424;49.696;6.630;2023-01-28T07:35:44;1.70;99.90
4820;DHT22;2424;49.696;6.630;2023-01-28T07:41:08;1.70;99.90
4820;DHT22;2424;49.696;6.630;2023-01-28T07:46:30;1.70;99.90
4820;DHT22;2424;49.696;6.630;2023-01-28T07:51:52;1.80;99.90
4820;DHT22;2424;49.696;6.630;2023-01-28T07:57:15;1.70;99.90
4820;DHT22;2424;49.696;6.630;2023-01-28T08:02:42;1.80;99.90
4820;DHT22;2424;49.696;6.630;2023-01-28T08:08:07;1.80;99.90
4820;DHT22;2424;49.696;6.630;2023-01-28T08:13:31;1.80;99.90
4820;DHT22;2424;49.696;6.630;2023-01-28T08:18:53;1.80;99.90
4820;DHT22;2424;49.696;6.630;2023-01-28T08:24:15;1.80;99.90
4820;DHT22;2424;49.696;6.630;2023-01-28T08:29:38;1.80;99.90
4820;DHT22;2424;49.696;6.630;2023-01-28T08:35:00;1.90;99.90
4820;DHT22;2424;49.696;6.630;2023-01-28T08:40:22;1.90;99.90
4820;DHT22;2424;49.696;6.630;2023-01-28T08:45:46;1.90;99.90
4820;DHT22;2424;49.696;6.630;2023-01-28T08:51:08;1.90;99.90
4820;DHT22;2424;49.696;6.630;2023-01-28T08:56:29;1.90;99.90
4820;DHT22;2424;49.696;6.630;2023-01-28T09:01:53;1.90;99.90
4820;DHT22;2424;49.696;6.630;2023-01-28T09:07:15;1.90;99.90
4820;DHT22;2424;49.696;6.630;2023-01-28T09:12:37;1.90;99.90
4820;DHT22;2424;49.696;6.630;2023-01-28T09:18:00;2.00;99.90
4820;DHT22;2424;49.696;6.630;2023-01-28T09:23:22;2.00;99.90
4820;DHT22;2424;49.696;6.630;2023-01-28T09:28:46;2.00;99.90
4820;DHT22;2424;49.696;6.630;2023-01-28T09:34:09;2.10;99.90
4820;DHT22;2424;49.696;6.630;2023-01-28T09:39:31;2.00;99.90
4820;DHT22;2424;49.696;6.630;2023-01-28T09:45:00;1.90;99.90
4820;DHT22;2424;49.696;6.630;2023-01-28T09:50:29;1.80;99.90
4820;DHT22;2424;49.696;6.630;2023-01-28T09:55:56;1.80;99.90
4820;DHT22;2424;49.696;6.630;2023-01-28T10:01:35;1.80;99.90
4820;DHT22;2424;49.696;6.630;2023-01-28T10:07:18;1.80;99.90
4820;DHT22;2424;49.696;6.630;2023-01-28T10:13:06;1.80;99.90
4820;DHT22;2424;49.696;6.630;2023-01-28T10:18:35;1.80;99.90
4820;DHT22;2424;49.696;6.630;2023-01-28T10:24:04;1.80;99.90
4820;DHT22;2424;49.696;6.630;2023-01-28T10:29:30;1.80;99.90
4820;DHT22;2424;49.696;6.630;2023-01-28T10:34:55;1.90;99.90
4820;DHT22;2424;49.696;6.630;2023-01-28T10:40:20;1.90;99.90
4820;DHT22;2424;49.696;6.630;2023-01-28T10:45:48;1.90;99.90
4820;DHT22;2424;49.696;6.630;2023-01-28T10:51:14;1.90;99.90
4820;DHT22;2424;49.696;6.630;2023-01-28T10:56:37;1.90;99.90
4820;DHT22;2424;49.696;6.630;2023-01-28T11:02:01;1.80;99.90
4820;DHT22;2424;49.696;6.630;2023-01-28T11:07:24;1.90;99.90
4820;DHT22;2424;49.696;6.630;2023-01-28T11:12:54;2.00;99.90
4820;DHT22;2424;49.696;6.630;2023-01-28T11:18:18;2.00;99.90
4820;DHT22;2424;49.696;6.630;2023-01-28T11:23:48;2.00;99.90
4820;DHT22;2424;49.696;6.630;2023-01-28T11:29:21;2.00;99.90
4820;DHT22;2424;49.696;6.630;2023-01-28T11:34:49;2.00;99.90
4820;DHT22;2424;49.696;6.630;2023-01-28T11:40:16;2.00;99.90
4820;DHT22;2424;49.696;6.630;2023-01-28T11:45:48;2.00;99.90
4820;DHT22;2424;49.696;6.630;2023-01-28T11:51:23;2.00;99.90
4820;DHT22;2424;49.696;6.630;2023-01-28T11:57:03;2.10;99.90
4820;DHT22;2424;49.696;6.630;2023-01-28T12:02:42;2.10;99.90
4820;DHT22;2424;49.696;6.630;2023-01-28T12:08:14;2.00;99.90
4820;DHT22;2424;49.696;6.630;2023-01-28T12:13:47;1.90;99.90
4820;DHT22;2424;49.696;6.630;2023-01-28T12:19:31;2.00;99.90
4820;DHT22;2424;49.696;6.630;2023-01-28T12:31:00;2.00;99.90
4820;DHT22;2424;49.696;6.630;2023-01-28T12:36:39;2.00;99.90
4820;DHT22;2424;49.696;6.630;2023-01-28T12:42:08;2.10;99.90
4820;DHT22;2424;49.696;6.630;2023-01-28T12:47:35;2.10;99.90
4820;DHT22;2424;49.696;6.630;2023-01-28T12:53:04;2.10;99.90
4820;DHT22;2424;49.696;6.630;2023-01-28T12:58:36;2.10;99.90
4820;DHT22;2424;49.696;6.630;2023-01-28T13:04:04;2.10;99.90
4820;DHT22;2424;49.696;6.630;2023-01-28T13:09:30;2.10;99.90
4820;DHT22;2424;49.696;6.630;2023-01-28T13:14:54;2.10;99.90
4820;DHT22;2424;49.696;6.630;2023-01-28T13:20:27;2.10;99.90
4820;DHT22;2424;49.696;6.630;2023-01-28T13:25:52;2.10;99.90
4820;DHT22;2424;49.696;6.630;2023-01-28T13:31:16;2.10;99.90
4820;DHT22;2424;49.696;6.630;2023-01-28T13:36:43;2.20;99.90
4820;DHT22;2424;49.696;6.630;2023-01-28T13:42:22;2.10;99.90
4820;DHT22;2424;49.696;6.630;2023-01-28T13:47:46;2.20;99.90
4820;DHT22;2424;49.696;6.630;2023-01-28T13:53:18;2.10;99.90
4820;DHT22;2424;49.696;6.630;2023-01-28T13:59:19;2.10;99.90
4820;DHT22;2424;49.696;6.630;2023-01-28T14:05:15;2.10;99.90
4820;DHT22;2424;49.696;6.630;2023-01-28T14:10:54;2.10;99.90
4820;DHT22;2424;49.696;6.630;2023-01-28T14:16:32;2.00;99.90
4820;DHT22;2424;49.696;6.630;2023-01-28T14:21:56;2.00;99.90
4820;DHT22;2424;49.696;6.630;2023-01-28T14:27:22;2.00;99.90
4820;DHT22;2424;49.696;6.630;2023-01-28T14:32:49;2.00;99.90
4820;DHT22;2424;49.696;6.630;2023-01-28T14:38:15;2.00;99.90
4820;DHT22;2424;49.696;6.630;2023-01-28T14:43:39;1.90;99.90
4820;DHT22;2424;49.696;6.630;2023-01-28T14:49:19;1.90;99.90
4820;DHT22;2424;49.696;6.630;2023-01-28T14:54:57;2.00;99.90
4820;DHT22;2424;49.696;6.630;2023-01-28T15:00:23;1.90;99.90
4820;DHT22;2424;49.696;6.630;2023-01-28T15:05:46;1.80;99.90
4820;DHT22;2424;49.696;6.630;2023-01-28T15:11:11;1.80;99.90
4820;DHT22;2424;49.696;6.630;2023-01-28T15:16:34;1.80;99.90
4820;DHT22;2424;49.696;6.630;2023-01-28T15:21:59;1.80;99.90
4820;DHT22;2424;49.696;6.630;2023-01-28T15:27:26;1.80;99.90
4820;DHT22;2424;49.696;6.630;2023-01-28T15:33:12;1.80;99.90
4820;DHT22;2424;49.696;6.630;2023-01-28T15:38:36;1.80;99.90
4820;DHT22;2424;49.696;6.630;2023-01-28T15:43:58;1.70;99.90
4820;DHT22;2424;49.696;6.630;2023-01-28T15:49:20;1.70;99.90
4820;DHT22;2424;49.696;6.630;2023-01-28T15:54:47;1.60;99.90
4820;DHT22;2424;49.696;6.630;2023-01-28T16:00:12;1.70;99.90
4820;DHT22;2424;49.696;6.630;2023-01-28T16:05:37;1.70;99.90
4820;DHT22;2424;49.696;6.630;2023-01-28T16:11:01;1.60;99.90
4820;DHT22;2424;49.696;6.630;2023-01-28T16:16:29;1.60;99.90
4820;DHT22;2424;49.696;6.630;2023-01-28T16:21:51;1.50;99.90
4820;DHT22;2424;49.696;6.630;2023-01-28T16:27:20;1.50;99.90
4820;DHT22;2424;49.696;6.630;2023-01-28T16:32:43;1.50;99.90
4820;DHT22;2424;49.696;6.630;2023-01-28T16:38:05;1.40;99.90
4820;DHT22;2424;49.696;6.630;2023-01-28T16:43:28;1.40;99.90
4820;DHT22;2424;49.696;6.630;2023-01-28T16:48:50;1.40;99.90
4820;DHT22;2424;49.696;6.630;2023-01-28T16:54:13;1.40;99.90
4820;DHT22;2424;49.696;6.630;2023-01-28T16:59:37;1.30;99.90
4820;DHT22;2424;49.696;6.630;2023-01-28T17:04:59;1.30;99.90
4820;DHT22;2424;49.696;6.630;2023-01-28T17:10:21;1.30;99.90
4820;DHT22;2424;49.696;6.630;2023-01-28T17:15:45;1.20;99.90
4820;DHT22;2424;49.696;6.630;2023-01-28T17:21:06;1.20;99.90
4820;DHT22;2424;49.696;6.630;2023-01-28T17:26:28;1.20;99.90
4820;DHT22;2424;49.696;6.630;2023-01-28T17:31:52;1.20;99.90
4820;DHT22;2424;49.696;6.630;2023-01-28T17:37:14;1.20;99.90
4820;DHT22;2424;49.696;6.630;2023-01-28T17:42:36;1.20;99.90
4820;DHT22;2424;49.696;6.630;2023-01-28T17:47:59;1.10;99.90
4820;DHT22;2424;49.696;6.630;2023-01-28T17:53:21;1.00;99.90
4820;DHT22;2424;49.696;6.630;2023-01-28T17:58:43;0.90;99.90
4820;DHT22;2424;49.696;6.630;2023-01-28T18:04:06;0.90;99.90
4820;DHT22;2424;49.696;6.630;2023-01-28T18:09:28;0.80;99.90
4820;DHT22;2424;49.696;6.630;2023-01-28T18:14:50;0.90;99.90
4820;DHT22;2424;49.696;6.630;2023-01-28T18:20:14;0.90;99.90
4820;DHT22;2424;49.696;6.630;2023-01-28T18:25:36;0.90;99.90
4820;DHT22;2424;49.696;6.630;2023-01-28T18:31:03;0.80;99.90
4820;DHT22;2424;49.696;6.630;2023-01-28T18:36:26;0.90;99.90
4820;DHT22;2424;49.696;6.630;2023-01-28T18:41:51;0.90;99.90
4820;DHT22;2424;49.696;6.630;2023-01-28T18:47:14;0.90;99.90
4820;DHT22;2424;49.696;6.630;2023-01-28T18:52:38;0.90;99.90
4820;DHT22;2424;49.696;6.630;2023-01-28T18:58:00;0.90;99.90
4820;DHT22;2424;49.696;6.630;2023-01-28T19:03:22;0.90;99.90
4820;DHT22;2424;49.696;6.630;2023-01-28T19:08:50;0.80;99.90
4820;DHT22;2424;49.696;6.630;2023-01-28T19:14:14;0.80;99.90
4820;DHT22;2424;49.696;6.630;2023-01-28T19:19:36;0.80;99.90
4820;DHT22;2424;49.696;6.630;2023-01-28T19:25:00;0.70;99.90
4820;DHT22;2424;49.696;6.630;2023-01-28T19:30:22;0.60;99.90
4820;DHT22;2424;49.696;6.630;2023-01-28T19:35:44;0.50;99.90
4820;DHT22;2424;49.696;6.630;2023-01-28T19:41:07;0.60;99.90
4820;DHT22;2424;49.696;6.630;2023-01-28T19:46:32;0.60;99.90
4820;DHT22;2424;49.696;6.630;2023-01-28T19:51:55;0.60;99.90
4820;DHT22;2424;49.696;6.630;2023-01-28T19:57:18;0.60;99.90
4820;DHT22;2424;49.696;6.630;2023-01-28T20:02:40;0.50;99.90
4820;DHT22;2424;49.696;6.630;2023-01-28T20:08:03;0.40;99.90
4820;DHT22;2424;49.696;6.630;2023-01-28T20:13:28;0.50;99.90
4820;DHT22;2424;49.696;6.630;2023-01-28T20:18:51;0.50;99.90
4820;DHT22;2424;49.696;6.630;2023-01-28T20:24:14;0.50;99.90
4820;DHT22;2424;49.696;6.630;2023-01-28T20:29:38;0.40;99.90
4820;DHT22;2424;49.696;6.630;2023-01-28T20:35:00;0.40;99.90
4820;DHT22;2424;49.696;6.630;2023-01-28T20:40:21;0.40;99.90
4820;DHT22;2424;49.696;6.630;2023-01-28T20:45:45;0.40;99.90
4820;DHT22;2424;49.696;6.630;2023-01-28T20:51:08;0.30;99.90
4820;DHT22;2424;49.696;6.630;2023-01-28T20:56:31;0.40;99.90
4820;DHT22;2424;49.696;6.630;2023-01-28T21:01:54;0.30;99.90
4820;DHT22;2424;49.696;6.630;2023-01-28T21:07:16;0.30;99.90
4820;DHT22;2424;49.696;6.630;2023-01-28T21:12:38;0.30;99.90
4820;DHT22;2424;49.696;6.630;2023-01-28T21:18:02;0.30;99.90
4820;DHT22;2424;49.696;6.630;2023-01-28T21:23:24;0.30;99.90
4820;DHT22;2424;49.696;6.630;2023-01-28T21:28:46;0.30;99.90
4820;DHT22;2424;49.696;6.630;2023-01-28T21:34:09;0.30;99.90
4820;DHT22;2424;49.696;6.630;2023-01-28T21:39:31;0.20;99.90
4820;DHT22;2424;49.696;6.630;2023-01-28T21:44:53;0.20;99.90
4820;DHT22;2424;49.696;6.630;2023-01-28T21:50:16;0.20;99.90
4820;DHT22;2424;49.696;6.630;2023-01-28T21:55:38;0.20;99.90
4820;DHT22;2424;49.696;6.630;2023-01-28T22:01:07;0.20;99.90
4820;DHT22;2424;49.696;6.630;2023-01-28T22:06:30;0.20;99.90
4820;DHT22;2424;49.696;6.630;2023-01-28T22:11:52;0.30;99.90
4820;DHT22;2424;49.696;6.630;2023-01-28T22:17:14;0.20;99.90
4820;DHT22;2424;49.696;6.630;2023-01-28T22:22:40;0.20;99.90
4820;DHT22;2424;49.696;6.630;2023-01-28T22:28:02;0.20;99.90
4820;DHT22;2424;49.696;6.630;2023-01-28T22:33:24;0.20;99.90
4820;DHT22;2424;49.696;6.630;2023-01-28T22:38:47;0.20;99.90
4820;DHT22;2424;49.696;6.630;2023-01-28T22:44:09;0.20;99.90
4820;DHT22;2424;49.696;6.630;2023-01-28T22:49:31;0.20;99.90
4820;DHT22;2424;49.696;6.630;2023-01-28T22:54:55;0.20;99.90
4820;DHT22;2424;49.696;6.630;2023-01-28T23:00:17;0.20;99.90
4820;DHT22;2424;49.696;6.630;2023-01-28T23:05:40;0.10;99.90
4820;DHT22;2424;49.696;6.630;2023-01-28T23:11:04;0.10;99.90
4820;DHT22;2424;49.696;6.630;2023-01-28T23:16:34;0.10;99.90
4820;DHT22;2424;49.696;6.630;2023-01-28T23:22:16;0.00;99.90
4820;DHT22;2424;49.696;6.630;2023-01-28T23:27:59;0.10;99.90
4820;DHT22;2424;49.696;6.630;2023-01-28T23:33:21;0.00;99.90
4820;DHT22;2424;49.696;6.630;2023-01-28T23:38:44;0.00;99.90
4820;DHT22;2424;49.696;6.630;2023-01-28T23:44:07;0.00;99.90
4820;DHT22;2424;49.696;6.630;2023-01-28T23:49:29;0.00;99.90
4820;DHT22;2424;49.696;6.630;2023-01-28T23:54:51;-0.10;99.90
